sensor_id;sensor_type;location;lat;lon;timestamp;P1;durP1;ratioP1;P2;durP2;ratioP2
40367;SDS011;26075;43.320;21.920;2022-09-09T00:02:28;9.90;;;8.13;;
40367;SDS011;26075;43.320;21.920;2022-09-09T00:07:49;8.60;;;7.20;;
40367;SDS011;26075;43.320;21.920;2022-09-09T00:13:06;9.90;;;7.68;;
40367;SDS011;26075;43.320;21.920;2022-09-09T00:23:34;8.27;;;7.35;;
40367;SDS011;26075;43.320;21.920;2022-09-09T00:28:41;11.98;;;7.38;;
40367;SDS011;26075;43.320;21.920;2022-09-09T00:33:46;14.20;;;8.55;;
40367;SDS011;26075;43.320;21.920;2022-09-09T00:38:49;11.38;;;7.10;;
40367;SDS011;26075;43.320;21.920;2022-09-09T00:43:55;12.20;;;7.45;;
40367;SDS011;26075;43.320;21.920;2022-09-09T01:04:20;8.93;;;7.05;;
40367;SDS011;26075;43.320;21.920;2022-09-09T01:09:30;9.63;;;7.65;;
40367;SDS011;26075;43.320;21.920;2022-09-09T01:19:40;12.38;;;7.30;;
40367;SDS011;26075;43.320;21.920;2022-09-09T01:30:14;8.50;;;6.93;;
40367;SDS011;26075;43.320;21.920;2022-09-09T01:40:20;11.20;;;6.97;;
40367;SDS011;26075;43.320;21.920;2022-09-09T01:45:21;8.63;;;7.15;;
40367;SDS011;26075;43.320;21.920;2022-09-09T01:50:22;12.50;;;7.00;;
40367;SDS011;26075;43.320;21.920;2022-09-09T01:55:28;9.80;;;6.35;;
40367;SDS011;26075;43.320;21.920;2022-09-09T02:00:30;11.57;;;6.43;;
40367;SDS011;26075;43.320;21.920;2022-09-09T02:15:56;7.90;;;6.07;;
40367;SDS011;26075;43.320;21.920;2022-09-09T02:20:58;8.48;;;6.40;;
40367;SDS011;26075;43.320;21.920;2022-09-09T02:26:00;9.80;;;6.28;;
40367;SDS011;26075;43.320;21.920;2022-09-09T02:31:03;12.38;;;6.45;;
40367;SDS011;26075;43.320;21.920;2022-09-09T02:36:05;7.75;;;6.15;;
40367;SDS011;26075;43.320;21.920;2022-09-09T02:41:07;7.25;;;6.22;;
40367;SDS011;26075;43.320;21.920;2022-09-09T02:51:39;8.93;;;6.20;;
40367;SDS011;26075;43.320;21.920;2022-09-09T02:56:42;8.25;;;6.47;;
40367;SDS011;26075;43.320;21.920;2022-09-09T03:01:45;8.50;;;6.53;;
40367;SDS011;26075;43.320;21.920;2022-09-09T03:06:46;9.60;;;5.90;;
40367;SDS011;26075;43.320;21.920;2022-09-09T03:11:48;10.93;;;6.80;;
40367;SDS011;26075;43.320;21.920;2022-09-09T03:16:49;7.65;;;6.45;;
40367;SDS011;26075;43.320;21.920;2022-09-09T03:21:50;8.27;;;5.57;;
40367;SDS011;26075;43.320;21.920;2022-09-09T03:26:51;8.65;;;6.13;;
40367;SDS011;26075;43.320;21.920;2022-09-09T03:31:52;11.95;;;6.80;;
40367;SDS011;26075;43.320;21.920;2022-09-09T03:36:54;7.82;;;6.88;;
40367;SDS011;26075;43.320;21.920;2022-09-09T03:41:55;8.65;;;6.80;;
40367;SDS011;26075;43.320;21.920;2022-09-09T03:46:56;8.55;;;6.20;;
40367;SDS011;26075;43.320;21.920;2022-09-09T03:52:00;8.25;;;6.35;;
40367;SDS011;26075;43.320;21.920;2022-09-09T03:57:02;7.47;;;6.32;;
40367;SDS011;26075;43.320;21.920;2022-09-09T04:02:03;8.73;;;6.05;;
40367;SDS011;26075;43.320;21.920;2022-09-09T04:07:04;7.32;;;6.35;;
40367;SDS011;26075;43.320;21.920;2022-09-09T04:12:06;8.55;;;6.53;;
40367;SDS011;26075;43.320;21.920;2022-09-09T04:17:07;8.27;;;6.45;;
40367;SDS011;26075;43.320;21.920;2022-09-09T04:22:08;8.32;;;6.97;;
40367;SDS011;26075;43.320;21.920;2022-09-09T04:27:09;11.10;;;7.03;;
40367;SDS011;26075;43.320;21.920;2022-09-09T04:32:10;8.57;;;6.78;;
40367;SDS011;26075;43.320;21.920;2022-09-09T04:37:11;7.85;;;6.57;;
40367;SDS011;26075;43.320;21.920;2022-09-09T04:42:12;10.02;;;7.82;;
40367;SDS011;26075;43.320;21.920;2022-09-09T04:47:13;12.65;;;7.70;;
40367;SDS011;26075;43.320;21.920;2022-09-09T04:52:14;10.38;;;7.15;;
40367;SDS011;26075;43.320;21.920;2022-09-09T04:57:17;11.00;;;7.70;;
40367;SDS011;26075;43.320;21.920;2022-09-09T05:02:18;10.77;;;6.93;;
40367;SDS011;26075;43.320;21.920;2022-09-09T05:07:19;10.57;;;7.57;;
40367;SDS011;26075;43.320;21.920;2022-09-09T05:12:20;12.77;;;7.72;;
40367;SDS011;26075;43.320;21.920;2022-09-09T05:17:22;11.45;;;7.40;;
40367;SDS011;26075;43.320;21.920;2022-09-09T05:22:24;12.82;;;8.40;;
40367;SDS011;26075;43.320;21.920;2022-09-09T05:27:25;10.95;;;6.90;;
40367;SDS011;26075;43.320;21.920;2022-09-09T05:32:26;12.35;;;7.80;;
40367;SDS011;26075;43.320;21.920;2022-09-09T05:37:27;9.95;;;7.68;;
40367;SDS011;26075;43.320;21.920;2022-09-09T05:42:30;12.00;;;8.35;;
40367;SDS011;26075;43.320;21.920;2022-09-09T05:47:32;11.95;;;7.55;;
40367;SDS011;26075;43.320;21.920;2022-09-09T05:52:33;11.20;;;7.80;;
40367;SDS011;26075;43.320;21.920;2022-09-09T05:57:34;8.35;;;6.45;;
40367;SDS011;26075;43.320;21.920;2022-09-09T06:02:35;16.08;;;7.10;;
40367;SDS011;26075;43.320;21.920;2022-09-09T06:07:37;12.23;;;8.13;;
40367;SDS011;26075;43.320;21.920;2022-09-09T06:12:41;12.77;;;7.88;;
40367;SDS011;26075;43.320;21.920;2022-09-09T06:17:42;14.32;;;7.78;;
40367;SDS011;26075;43.320;21.920;2022-09-09T06:22:45;11.15;;;7.20;;
40367;SDS011;26075;43.320;21.920;2022-09-09T06:27:49;11.15;;;7.00;;
40367;SDS011;26075;43.320;21.920;2022-09-09T06:32:50;12.57;;;7.72;;
40367;SDS011;26075;43.320;21.920;2022-09-09T06:37:51;10.55;;;7.80;;
40367;SDS011;26075;43.320;21.920;2022-09-09T06:42:52;11.10;;;6.95;;
40367;SDS011;26075;43.320;21.920;2022-09-09T06:47:54;13.23;;;7.10;;
40367;SDS011;26075;43.320;21.920;2022-09-09T06:52:56;15.05;;;7.45;;
40367;SDS011;26075;43.320;21.920;2022-09-09T06:57:57;9.57;;;7.00;;
40367;SDS011;26075;43.320;21.920;2022-09-09T07:02:58;10.98;;;7.75;;
40367;SDS011;26075;43.320;21.920;2022-09-09T07:07:59;15.23;;;8.60;;
40367;SDS011;26075;43.320;21.920;2022-09-09T07:13:00;12.18;;;8.60;;
40367;SDS011;26075;43.320;21.920;2022-09-09T07:18:02;18.95;;;11.38;;
40367;SDS011;26075;43.320;21.920;2022-09-09T07:23:03;13.05;;;9.10;;
40367;SDS011;26075;43.320;21.920;2022-09-09T07:28:04;14.52;;;9.55;;
40367;SDS011;26075;43.320;21.920;2022-09-09T07:33:05;16.77;;;10.10;;
40367;SDS011;26075;43.320;21.920;2022-09-09T07:38:06;20.17;;;10.35;;
40367;SDS011;26075;43.320;21.920;2022-09-09T07:43:07;15.57;;;9.82;;
40367;SDS011;26075;43.320;21.920;2022-09-09T07:48:08;16.35;;;10.32;;
40367;SDS011;26075;43.320;21.920;2022-09-09T07:53:10;14.30;;;9.85;;
40367;SDS011;26075;43.320;21.920;2022-09-09T07:58:11;12.52;;;9.23;;
40367;SDS011;26075;43.320;21.920;2022-09-09T08:03:12;16.42;;;9.07;;
40367;SDS011;26075;43.320;21.920;2022-09-09T08:08:13;13.38;;;9.38;;
40367;SDS011;26075;43.320;21.920;2022-09-09T08:13:16;13.55;;;9.00;;
40367;SDS011;26075;43.320;21.920;2022-09-09T08:18:18;13.40;;;9.02;;
40367;SDS011;26075;43.320;21.920;2022-09-09T08:23:19;14.80;;;9.77;;
40367;SDS011;26075;43.320;21.920;2022-09-09T08:28:21;16.17;;;9.45;;
40367;SDS011;26075;43.320;21.920;2022-09-09T08:33:22;16.30;;;9.45;;
40367;SDS011;26075;43.320;21.920;2022-09-09T08:38:25;14.18;;;10.43;;
40367;SDS011;26075;43.320;21.920;2022-09-09T08:43:26;14.80;;;10.30;;
40367;SDS011;26075;43.320;21.920;2022-09-09T08:53:37;13.93;;;10.38;;
40367;SDS011;26075;43.320;21.920;2022-09-09T08:58:49;16.73;;;11.55;;
40367;SDS011;26075;43.320;21.920;2022-09-09T09:09:26;18.45;;;10.70;;
40367;SDS011;26075;43.320;21.920;2022-09-09T09:14:33;20.55;;;10.73;;
40367;SDS011;26075;43.320;21.920;2022-09-09T09:19:35;17.15;;;10.80;;
40367;SDS011;26075;43.320;21.920;2022-09-09T09:29:51;19.38;;;10.65;;
40367;SDS011;26075;43.320;21.920;2022-09-09T09:40:15;17.80;;;10.98;;
40367;SDS011;26075;43.320;21.920;2022-09-09T09:50:35;11.00;;;9.68;;
40367;SDS011;26075;43.320;21.920;2022-09-09T09:55:44;18.92;;;10.98;;
40367;SDS011;26075;43.320;21.920;2022-09-09T10:00:50;12.68;;;9.30;;
40367;SDS011;26075;43.320;21.920;2022-09-09T10:05:52;15.05;;;9.90;;
40367;SDS011;26075;43.320;21.920;2022-09-09T10:42:24;12.25;;;8.43;;
40367;SDS011;26075;43.320;21.920;2022-09-09T10:57:38;13.27;;;7.13;;
40367;SDS011;26075;43.320;21.920;2022-09-09T11:02:40;17.67;;;7.78;;
40367;SDS011;26075;43.320;21.920;2022-09-09T11:08:01;16.27;;;8.07;;
40367;SDS011;26075;43.320;21.920;2022-09-09T11:13:04;16.25;;;9.00;;
40367;SDS011;26075;43.320;21.920;2022-09-09T11:18:11;14.00;;;7.18;;
40367;SDS011;26075;43.320;21.920;2022-09-09T11:23:16;17.27;;;7.00;;
40367;SDS011;26075;43.320;21.920;2022-09-09T11:48:42;16.13;;;8.45;;
40367;SDS011;26075;43.320;21.920;2022-09-09T11:59:16;13.68;;;5.47;;
40367;SDS011;26075;43.320;21.920;2022-09-09T12:20:14;11.38;;;5.72;;
40367;SDS011;26075;43.320;21.920;2022-09-09T12:30:16;9.57;;;4.32;;
40367;SDS011;26075;43.320;21.920;2022-09-09T12:35:19;16.17;;;5.32;;
40367;SDS011;26075;43.320;21.920;2022-09-09T12:40:22;12.40;;;5.70;;
40367;SDS011;26075;43.320;21.920;2022-09-09T12:45:24;15.27;;;6.32;;
40367;SDS011;26075;43.320;21.920;2022-09-09T12:50:27;9.95;;;6.47;;
40367;SDS011;26075;43.320;21.920;2022-09-09T12:55:30;11.45;;;7.43;;
40367;SDS011;26075;43.320;21.920;2022-09-09T13:00:33;12.17;;;7.40;;
40367;SDS011;26075;43.320;21.920;2022-09-09T13:05:35;11.40;;;6.53;;
40367;SDS011;26075;43.320;21.920;2022-09-09T13:10:46;10.85;;;7.78;;
40367;SDS011;26075;43.320;21.920;2022-09-09T13:15:49;13.57;;;7.28;;
40367;SDS011;26075;43.320;21.920;2022-09-09T13:20:50;9.43;;;7.22;;
40367;SDS011;26075;43.320;21.920;2022-09-09T13:26:02;8.13;;;6.90;;
40367;SDS011;26075;43.320;21.920;2022-09-09T13:31:05;9.52;;;6.30;;
40367;SDS011;26075;43.320;21.920;2022-09-09T13:36:08;10.68;;;6.50;;
40367;SDS011;26075;43.320;21.920;2022-09-09T13:41:10;8.27;;;4.78;;
40367;SDS011;26075;43.320;21.920;2022-09-09T13:56:31;9.20;;;5.63;;
40367;SDS011;26075;43.320;21.920;2022-09-09T14:01:32;8.35;;;5.88;;
40367;SDS011;26075;43.320;21.920;2022-09-09T14:06:35;11.07;;;5.78;;
40367;SDS011;26075;43.320;21.920;2022-09-09T14:11:39;9.57;;;5.20;;
40367;SDS011;26075;43.320;21.920;2022-09-09T14:16:40;11.43;;;5.95;;
40367;SDS011;26075;43.320;21.920;2022-09-09T14:21:41;11.35;;;5.80;;
40367;SDS011;26075;43.320;21.920;2022-09-09T14:26:42;9.80;;;4.93;;
40367;SDS011;26075;43.320;21.920;2022-09-09T14:31:43;10.68;;;4.43;;
40367;SDS011;26075;43.320;21.920;2022-09-09T14:36:44;9.32;;;5.10;;
40367;SDS011;26075;43.320;21.920;2022-09-09T14:41:47;9.20;;;4.93;;
40367;SDS011;26075;43.320;21.920;2022-09-09T14:46:48;8.95;;;4.80;;
40367;SDS011;26075;43.320;21.920;2022-09-09T14:51:50;9.75;;;4.65;;
40367;SDS011;26075;43.320;21.920;2022-09-09T14:56:51;9.93;;;4.35;;
40367;SDS011;26075;43.320;21.920;2022-09-09T15:01:52;8.40;;;4.70;;
40367;SDS011;26075;43.320;21.920;2022-09-09T15:06:53;10.77;;;4.97;;
40367;SDS011;26075;43.320;21.920;2022-09-09T15:11:54;9.60;;;5.25;;
40367;SDS011;26075;43.320;21.920;2022-09-09T15:16:55;10.00;;;5.45;;
40367;SDS011;26075;43.320;21.920;2022-09-09T15:21:56;10.60;;;5.25;;
40367;SDS011;26075;43.320;21.920;2022-09-09T15:26:58;15.18;;;6.47;;
40367;SDS011;26075;43.320;21.920;2022-09-09T15:31:59;10.73;;;4.68;;
40367;SDS011;26075;43.320;21.920;2022-09-09T15:37:01;11.00;;;4.22;;
40367;SDS011;26075;43.320;21.920;2022-09-09T15:42:02;11.35;;;5.07;;
40367;SDS011;26075;43.320;21.920;2022-09-09T15:47:03;9.63;;;4.68;;
40367;SDS011;26075;43.320;21.920;2022-09-09T15:52:04;9.27;;;4.53;;
40367;SDS011;26075;43.320;21.920;2022-09-09T15:57:06;7.80;;;4.32;;
40367;SDS011;26075;43.320;21.920;2022-09-09T16:02:08;10.13;;;4.40;;
40367;SDS011;26075;43.320;21.920;2022-09-09T16:07:09;7.72;;;3.95;;
40367;SDS011;26075;43.320;21.920;2022-09-09T16:12:10;9.73;;;4.45;;
40367;SDS011;26075;43.320;21.920;2022-09-09T16:17:13;10.38;;;4.72;;
40367;SDS011;26075;43.320;21.920;2022-09-09T16:22:15;10.85;;;5.20;;
40367;SDS011;26075;43.320;21.920;2022-09-09T16:27:17;10.50;;;5.60;;
40367;SDS011;26075;43.320;21.920;2022-09-09T16:32:18;9.57;;;5.00;;
40367;SDS011;26075;43.320;21.920;2022-09-09T16:37:20;8.30;;;4.80;;
40367;SDS011;26075;43.320;21.920;2022-09-09T16:42:21;10.40;;;5.68;;
40367;SDS011;26075;43.320;21.920;2022-09-09T16:47:22;11.27;;;4.85;;
40367;SDS011;26075;43.320;21.920;2022-09-09T16:52:23;10.90;;;6.07;;
40367;SDS011;26075;43.320;21.920;2022-09-09T16:57:24;12.20;;;5.35;;
40367;SDS011;26075;43.320;21.920;2022-09-09T17:02:25;9.10;;;5.15;;
40367;SDS011;26075;43.320;21.920;2022-09-09T17:07:26;12.05;;;5.13;;
40367;SDS011;26075;43.320;21.920;2022-09-09T17:12:27;10.05;;;5.80;;
40367;SDS011;26075;43.320;21.920;2022-09-09T17:17:29;9.82;;;6.18;;
40367;SDS011;26075;43.320;21.920;2022-09-09T17:22:30;11.10;;;7.10;;
40367;SDS011;26075;43.320;21.920;2022-09-09T17:27:31;13.20;;;6.00;;
40367;SDS011;26075;43.320;21.920;2022-09-09T17:32:32;12.65;;;6.82;;
40367;SDS011;26075;43.320;21.920;2022-09-09T17:37:33;14.77;;;7.93;;
40367;SDS011;26075;43.320;21.920;2022-09-09T17:42:34;14.88;;;7.78;;
40367;SDS011;26075;43.320;21.920;2022-09-09T17:47:36;18.60;;;8.65;;
40367;SDS011;26075;43.320;21.920;2022-09-09T17:52:37;15.35;;;9.60;;
40367;SDS011;26075;43.320;21.920;2022-09-09T17:57:38;20.45;;;10.82;;
40367;SDS011;26075;43.320;21.920;2022-09-09T18:02:39;21.90;;;12.32;;
40367;SDS011;26075;43.320;21.920;2022-09-09T18:07:40;19.00;;;10.82;;
40367;SDS011;26075;43.320;21.920;2022-09-09T18:12:41;19.45;;;10.60;;
40367;SDS011;26075;43.320;21.920;2022-09-09T18:17:42;23.25;;;11.82;;
40367;SDS011;26075;43.320;21.920;2022-09-09T18:22:43;24.83;;;14.20;;
40367;SDS011;26075;43.320;21.920;2022-09-09T18:27:44;22.13;;;14.98;;
40367;SDS011;26075;43.320;21.920;2022-09-09T18:32:47;29.15;;;19.83;;
40367;SDS011;26075;43.320;21.920;2022-09-09T18:37:49;28.10;;;14.60;;
40367;SDS011;26075;43.320;21.920;2022-09-09T18:42:51;21.95;;;14.07;;
40367;SDS011;26075;43.320;21.920;2022-09-09T18:47:52;23.92;;;13.38;;
40367;SDS011;26075;43.320;21.920;2022-09-09T18:52:53;22.80;;;12.73;;
40367;SDS011;26075;43.320;21.920;2022-09-09T18:57:53;21.67;;;10.70;;
40367;SDS011;26075;43.320;21.920;2022-09-09T19:02:57;27.00;;;18.30;;
40367;SDS011;26075;43.320;21.920;2022-09-09T19:07:58;23.88;;;12.95;;
40367;SDS011;26075;43.320;21.920;2022-09-09T19:12:59;14.75;;;9.63;;
40367;SDS011;26075;43.320;21.920;2022-09-09T19:18:00;32.67;;;22.85;;
40367;SDS011;26075;43.320;21.920;2022-09-09T19:23:01;18.55;;;12.95;;
40367;SDS011;26075;43.320;21.920;2022-09-09T19:28:03;22.88;;;12.55;;
40367;SDS011;26075;43.320;21.920;2022-09-09T19:33:05;24.35;;;17.48;;
40367;SDS011;26075;43.320;21.920;2022-09-09T19:38:07;22.13;;;15.75;;
40367;SDS011;26075;43.320;21.920;2022-09-09T19:43:08;13.57;;;8.05;;
40367;SDS011;26075;43.320;21.920;2022-09-09T19:48:09;10.70;;;6.05;;
40367;SDS011;26075;43.320;21.920;2022-09-09T19:53:10;9.82;;;6.07;;
40367;SDS011;26075;43.320;21.920;2022-09-09T19:58:11;8.27;;;6.80;;
40367;SDS011;26075;43.320;21.920;2022-09-09T20:03:13;10.77;;;6.82;;
40367;SDS011;26075;43.320;21.920;2022-09-09T20:08:14;10.98;;;6.90;;
40367;SDS011;26075;43.320;21.920;2022-09-09T20:13:15;9.95;;;6.93;;
40367;SDS011;26075;43.320;21.920;2022-09-09T20:18:16;13.85;;;8.30;;
40367;SDS011;26075;43.320;21.920;2022-09-09T20:23:17;13.93;;;8.70;;
40367;SDS011;26075;43.320;21.920;2022-09-09T20:28:18;11.60;;;8.45;;
40367;SDS011;26075;43.320;21.920;2022-09-09T20:33:20;11.45;;;8.30;;
40367;SDS011;26075;43.320;21.920;2022-09-09T20:38:21;9.82;;;8.02;;
40367;SDS011;26075;43.320;21.920;2022-09-09T20:43:22;13.98;;;8.32;;
40367;SDS011;26075;43.320;21.920;2022-09-09T20:48:23;12.52;;;8.10;;
40367;SDS011;26075;43.320;21.920;2022-09-09T20:53:25;14.48;;;8.73;;
40367;SDS011;26075;43.320;21.920;2022-09-09T20:58:27;12.55;;;8.48;;
40367;SDS011;26075;43.320;21.920;2022-09-09T21:03:29;11.30;;;7.63;;
40367;SDS011;26075;43.320;21.920;2022-09-09T21:08:31;23.40;;;9.68;;
40367;SDS011;26075;43.320;21.920;2022-09-09T21:13:33;20.50;;;8.70;;
40367;SDS011;26075;43.320;21.920;2022-09-09T21:18:35;15.65;;;8.68;;
40367;SDS011;26075;43.320;21.920;2022-09-09T21:23:39;12.10;;;8.82;;
40367;SDS011;26075;43.320;21.920;2022-09-09T21:28:40;13.23;;;8.25;;
40367;SDS011;26075;43.320;21.920;2022-09-09T21:33:42;11.65;;;8.20;;
40367;SDS011;26075;43.320;21.920;2022-09-09T21:38:43;13.10;;;8.02;;
40367;SDS011;26075;43.320;21.920;2022-09-09T21:43:44;12.95;;;8.00;;
40367;SDS011;26075;43.320;21.920;2022-09-09T21:48:46;10.75;;;8.85;;
40367;SDS011;26075;43.320;21.920;2022-09-09T21:53:46;12.02;;;8.55;;
40367;SDS011;26075;43.320;21.920;2022-09-09T21:58:52;10.45;;;8.00;;
40367;SDS011;26075;43.320;21.920;2022-09-09T22:03:53;13.68;;;9.77;;
40367;SDS011;26075;43.320;21.920;2022-09-09T22:08:54;15.40;;;9.80;;
40367;SDS011;26075;43.320;21.920;2022-09-09T22:13:57;12.10;;;8.73;;
40367;SDS011;26075;43.320;21.920;2022-09-09T22:18:59;14.55;;;8.32;;
40367;SDS011;26075;43.320;21.920;2022-09-09T22:24:01;14.98;;;8.38;;
40367;SDS011;26075;43.320;21.920;2022-09-09T22:29:03;13.18;;;8.95;;
40367;SDS011;26075;43.320;21.920;2022-09-09T22:34:04;15.18;;;9.55;;
40367;SDS011;26075;43.320;21.920;2022-09-09T22:39:06;11.70;;;8.88;;
40367;SDS011;26075;43.320;21.920;2022-09-09T22:44:07;12.85;;;8.57;;
40367;SDS011;26075;43.320;21.920;2022-09-09T22:49:11;9.98;;;7.28;;
40367;SDS011;26075;43.320;21.920;2022-09-09T22:54:12;10.95;;;7.72;;
40367;SDS011;26075;43.320;21.920;2022-09-09T22:59:13;10.40;;;7.22;;
40367;SDS011;26075;43.320;21.920;2022-09-09T23:04:14;10.55;;;7.82;;
40367;SDS011;26075;43.320;21.920;2022-09-09T23:09:15;10.50;;;7.68;;
40367;SDS011;26075;43.320;21.920;2022-09-09T23:14:16;11.38;;;7.13;;
40367;SDS011;26075;43.320;21.920;2022-09-09T23:19:18;10.60;;;7.40;;
40367;SDS011;26075;43.320;21.920;2022-09-09T23:24:20;10.52;;;6.78;;
40367;SDS011;26075;43.320;21.920;2022-09-09T23:29:21;12.52;;;6.97;;
40367;SDS011;26075;43.320;21.920;2022-09-09T23:34:22;9.20;;;6.82;;
40367;SDS011;26075;43.320;21.920;2022-09-09T23:39:24;9.13;;;6.25;;
40367;SDS011;26075;43.320;21.920;2022-09-09T23:44:25;8.63;;;6.55;;
40367;SDS011;26075;43.320;21.920;2022-09-09T23:49:26;9.02;;;5.95;;
40367;SDS011;26075;43.320;21.920;2022-09-09T23:54:27;12.38;;;6.45;;
40367;SDS011;26075;43.320;21.920;2022-09-09T23:59:29;10.32;;;6.43;;
